sensor_id;sensor_type;location;lat;lon;timestamp;pressure;altitude;pressure_sealevel;temperature;humidity
29197;BME280;62796;42.654;23.316;2022-12-29T00:01:50;95467.69;;;8.26;56.69
29197;BME280;62796;42.654;23.316;2022-12-29T00:04:16;95467.91;;;8.31;56.26
29197;BME280;62796;42.654;23.316;2022-12-29T00:06:42;95465.16;;;8.31;57.31
29197;BME280;62796;42.654;23.316;2022-12-29T00:09:08;95455.00;;;8.28;56.50
29197;BME280;62796;42.654;23.316;2022-12-29T00:11:34;95478.38;;;8.37;56.61
29197;BME280;62796;42.654;23.316;2022-12-29T00:13:59;95467.34;;;8.37;55.77
29197;BME280;62796;42.654;23.316;2022-12-29T00:16:44;95482.09;;;8.43;55.86
29197;BME280;62796;42.654;23.316;2022-12-29T00:19:11;95482.09;;;8.43;55.46
29197;BME280;62796;42.654;23.316;2022-12-29T00:21:58;95478.13;;;8.44;55.55
29197;BME280;62796;42.654;23.316;2022-12-29T00:24:42;95479.03;;;8.41;55.54
29197;BME280;62796;42.654;23.316;2022-12-29T00:27:28;95486.72;;;8.46;55.34
29197;BME280;62796;42.654;23.316;2022-12-29T00:30:18;95487.50;;;8.46;55.16
29197;BME280;62796;42.654;23.316;2022-12-29T00:33:12;95484.75;;;8.46;55.40
29197;BME280;62796;42.654;23.316;2022-12-29T00:36:09;95469.84;;;8.44;55.06
29197;BME280;62796;42.654;23.316;2022-12-29T00:38:39;95483.41;;;8.51;54.88
29197;BME280;62796;42.654;23.316;2022-12-29T00:41:24;95489.25;;;8.53;55.26
29197;BME280;62796;42.654;23.316;2022-12-29T00:44:09;95480.31;;;8.49;55.20
29197;BME280;62796;42.654;23.316;2022-12-29T00:46:40;95498.81;;;8.61;55.26
29197;BME280;62796;42.654;23.316;2022-12-29T00:49:07;95498.63;;;8.55;55.01
29197;BME280;62796;42.654;23.316;2022-12-29T00:51:52;95495.19;;;8.51;55.57
29197;BME280;62796;42.654;23.316;2022-12-29T00:54:18;95499.19;;;8.50;55.56
29197;BME280;62796;42.654;23.316;2022-12-29T00:56:46;95492.31;;;8.55;55.69
29197;BME280;62796;42.654;23.316;2022-12-29T00:59:12;95494.47;;;8.51;55.40
29197;BME280;62796;42.654;23.316;2022-12-29T01:01:38;95494.78;;;8.53;55.42
29197;BME280;62796;42.654;23.316;2022-12-29T01:04:04;95486.50;;;8.53;55.54
29197;BME280;62796;42.654;23.316;2022-12-29T01:06:30;95484.13;;;8.42;55.54
29197;BME280;62796;42.654;23.316;2022-12-29T01:08:55;95490.97;;;8.38;55.89
29197;BME280;62796;42.654;23.316;2022-12-29T01:11:39;95485.25;;;8.32;55.96
29197;BME280;62796;42.654;23.316;2022-12-29T01:14:05;95485.31;;;8.41;56.25
29197;BME280;62796;42.654;23.316;2022-12-29T01:16:31;95489.63;;;8.42;55.74
29197;BME280;62796;42.654;23.316;2022-12-29T01:18:57;95479.50;;;8.39;55.53
29197;BME280;62796;42.654;23.316;2022-12-29T01:21:23;95485.31;;;8.41;55.62
29197;BME280;62796;42.654;23.316;2022-12-29T01:23:48;95480.69;;;8.38;55.37
29197;BME280;62796;42.654;23.316;2022-12-29T01:26:16;95477.28;;;8.34;55.70
29197;BME280;62796;42.654;23.316;2022-12-29T01:28:42;95482.81;;;8.34;55.64
29197;BME280;62796;42.654;23.316;2022-12-29T01:31:11;95478.19;;;8.31;56.21
29197;BME280;62796;42.654;23.316;2022-12-29T01:33:37;95479.50;;;8.26;56.15
29197;BME280;62796;42.654;23.316;2022-12-29T01:36:06;95479.63;;;8.23;56.35
29197;BME280;62796;42.654;23.316;2022-12-29T01:38:32;95467.94;;;8.19;56.33
29197;BME280;62796;42.654;23.316;2022-12-29T01:40:58;95464.09;;;8.16;56.46
29197;BME280;62796;42.654;23.316;2022-12-29T01:43:49;95472.03;;;8.14;56.84
29197;BME280;62796;42.654;23.316;2022-12-29T01:48:53;95461.78;;;8.15;56.78
29197;BME280;62796;42.654;23.316;2022-12-29T01:51:22;95461.00;;;8.14;56.63
29197;BME280;62796;42.654;23.316;2022-12-29T01:53:48;95463.31;;;8.16;56.83
29197;BME280;62796;42.654;23.316;2022-12-29T01:56:16;95457.16;;;8.12;56.71
29197;BME280;62796;42.654;23.316;2022-12-29T01:58:45;95451.09;;;8.04;57.02
29197;BME280;62796;42.654;23.316;2022-12-29T02:01:13;95456.63;;;8.04;57.08
29197;BME280;62796;42.654;23.316;2022-12-29T02:03:39;95445.16;;;8.06;57.23
29197;BME280;62796;42.654;23.316;2022-12-29T02:06:12;95450.75;;;8.15;57.03
29197;BME280;62796;42.654;23.316;2022-12-29T02:08:40;95450.16;;;8.20;57.18
29197;BME280;62796;42.654;23.316;2022-12-29T02:11:07;95451.25;;;8.22;56.98
29197;BME280;62796;42.654;23.316;2022-12-29T02:13:32;95439.44;;;8.22;57.01
29197;BME280;62796;42.654;23.316;2022-12-29T02:18:42;95437.34;;;8.26;56.96
29197;BME280;62796;42.654;23.316;2022-12-29T02:27:04;95442.19;;;8.34;56.69
29197;BME280;62796;42.654;23.316;2022-12-29T02:32:16;95436.78;;;8.31;56.00
29197;BME280;62796;42.654;23.316;2022-12-29T02:35:23;95445.84;;;8.31;55.57
29197;BME280;62796;42.654;23.316;2022-12-29T02:41:03;95444.63;;;8.32;55.37
29197;BME280;62796;42.654;23.316;2022-12-29T02:44:14;95446.03;;;8.37;55.05
29197;BME280;62796;42.654;23.316;2022-12-29T02:46:53;95445.25;;;8.37;54.88
29197;BME280;62796;42.654;23.316;2022-12-29T02:49:45;95451.31;;;8.44;54.72
29197;BME280;62796;42.654;23.316;2022-12-29T02:52:17;95449.25;;;8.36;55.05
29197;BME280;62796;42.654;23.316;2022-12-29T02:54:43;95448.00;;;8.37;55.20
29197;BME280;62796;42.654;23.316;2022-12-29T02:57:15;95432.56;;;8.39;54.14
29197;BME280;62796;42.654;23.316;2022-12-29T02:59:56;95433.66;;;8.42;54.31
29197;BME280;62796;42.654;23.316;2022-12-29T03:08:05;95424.97;;;8.30;55.39
29197;BME280;62796;42.654;23.316;2022-12-29T03:16:24;95423.44;;;8.29;55.68
29197;BME280;62796;42.654;23.316;2022-12-29T03:21:47;95425.31;;;8.20;56.19
29197;BME280;62796;42.654;23.316;2022-12-29T03:24:36;95422.09;;;8.21;56.13
29197;BME280;62796;42.654;23.316;2022-12-29T03:27:05;95419.69;;;8.23;55.67
29197;BME280;62796;42.654;23.316;2022-12-29T03:29:36;95427.50;;;8.25;55.84
29197;BME280;62796;42.654;23.316;2022-12-29T03:32:05;95426.88;;;8.21;56.24
29197;BME280;62796;42.654;23.316;2022-12-29T03:34:31;95424.56;;;8.19;55.90
29197;BME280;62796;42.654;23.316;2022-12-29T03:37:06;95421.47;;;8.17;56.37
29197;BME280;62796;42.654;23.316;2022-12-29T03:39:34;95427.56;;;8.12;56.18
29197;BME280;62796;42.654;23.316;2022-12-29T03:42:02;95420.75;;;8.04;56.21
29197;BME280;62796;42.654;23.316;2022-12-29T03:44:37;95414.59;;;8.00;56.07
29197;BME280;62796;42.654;23.316;2022-12-29T03:47:05;95420.88;;;8.01;55.98
29197;BME280;62796;42.654;23.316;2022-12-29T03:49:31;95428.06;;;7.98;56.29
29197;BME280;62796;42.654;23.316;2022-12-29T03:51:56;95427.09;;;7.92;56.34
29197;BME280;62796;42.654;23.316;2022-12-29T03:54:21;95432.28;;;7.90;56.32
29197;BME280;62796;42.654;23.316;2022-12-29T03:56:47;95441.13;;;7.85;56.58
29197;BME280;62796;42.654;23.316;2022-12-29T03:59:12;95442.34;;;7.84;56.52
29197;BME280;62796;42.654;23.316;2022-12-29T04:01:38;95440.38;;;7.85;56.14
29197;BME280;62796;42.654;23.316;2022-12-29T04:04:03;95441.06;;;7.76;56.19
29197;BME280;62796;42.654;23.316;2022-12-29T04:06:29;95451.94;;;7.79;56.13
29197;BME280;62796;42.654;23.316;2022-12-29T04:08:54;95447.47;;;7.73;56.14
29197;BME280;62796;42.654;23.316;2022-12-29T04:11:20;95436.34;;;7.64;56.32
29197;BME280;62796;42.654;23.316;2022-12-29T04:13:46;95446.47;;;7.67;56.32
29197;BME280;62796;42.654;23.316;2022-12-29T04:16:11;95448.47;;;7.66;56.15
29197;BME280;62796;42.654;23.316;2022-12-29T04:18:37;95440.88;;;7.58;56.21
29197;BME280;62796;42.654;23.316;2022-12-29T04:21:03;95443.53;;;7.49;56.65
29197;BME280;62796;42.654;23.316;2022-12-29T04:23:32;95444.72;;;7.48;56.41
29197;BME280;62796;42.654;23.316;2022-12-29T04:25:58;95443.53;;;7.49;56.21
29197;BME280;62796;42.654;23.316;2022-12-29T04:28:24;95453.00;;;7.48;56.31
29197;BME280;62796;42.654;23.316;2022-12-29T04:30:49;95445.41;;;7.39;56.65
29197;BME280;62796;42.654;23.316;2022-12-29T04:33:15;95455.97;;;7.41;56.49
29197;BME280;62796;42.654;23.316;2022-12-29T04:35:42;95453.88;;;7.45;56.29
29197;BME280;62796;42.654;23.316;2022-12-29T04:38:07;95460.41;;;7.38;56.34
29197;BME280;62796;42.654;23.316;2022-12-29T04:40:32;95457.31;;;7.36;56.47
29197;BME280;62796;42.654;23.316;2022-12-29T04:42:58;95462.94;;;7.33;56.47
29197;BME280;62796;42.654;23.316;2022-12-29T04:45:23;95467.81;;;7.29;56.42
29197;BME280;62796;42.654;23.316;2022-12-29T04:47:48;95449.06;;;7.23;56.60
29197;BME280;62796;42.654;23.316;2022-12-29T04:50:14;95469.69;;;7.32;56.72
29197;BME280;62796;42.654;23.316;2022-12-29T04:52:39;95463.94;;;7.26;56.76
29197;BME280;62796;42.654;23.316;2022-12-29T04:55:05;95483.47;;;7.32;56.46
29197;BME280;62796;42.654;23.316;2022-12-29T04:57:31;95478.47;;;7.39;55.93
29197;BME280;62796;42.654;23.316;2022-12-29T04:59:57;95470.53;;;7.41;56.16
29197;BME280;62796;42.654;23.316;2022-12-29T05:02:22;95480.03;;;7.40;55.60
29197;BME280;62796;42.654;23.316;2022-12-29T05:04:48;95471.31;;;7.42;55.67
29197;BME280;62796;42.654;23.316;2022-12-29T05:07:14;95470.78;;;7.34;55.74
29197;BME280;62796;42.654;23.316;2022-12-29T05:09:39;95457.66;;;7.26;56.41
29197;BME280;62796;42.654;23.316;2022-12-29T05:12:05;95478.69;;;7.32;56.29
29197;BME280;62796;42.654;23.316;2022-12-29T05:14:30;95481.13;;;7.30;56.12
29197;BME280;62796;42.654;23.316;2022-12-29T05:16:56;95476.72;;;7.33;56.43
29197;BME280;62796;42.654;23.316;2022-12-29T05:19:21;95477.28;;;7.28;56.17
29197;BME280;62796;42.654;23.316;2022-12-29T05:21:47;95477.59;;;7.30;56.56
29197;BME280;62796;42.654;23.316;2022-12-29T05:24:12;95470.88;;;7.31;56.69
29197;BME280;62796;42.654;23.316;2022-12-29T05:26:38;95478.06;;;7.28;56.65
29197;BME280;62796;42.654;23.316;2022-12-29T05:29:03;95477.94;;;7.32;56.69
29197;BME280;62796;42.654;23.316;2022-12-29T05:31:28;95464.38;;;7.24;56.85
29197;BME280;62796;42.654;23.316;2022-12-29T05:33:54;95470.66;;;7.25;56.54
29197;BME280;62796;42.654;23.316;2022-12-29T05:36:19;95467.34;;;7.17;57.00
29197;BME280;62796;42.654;23.316;2022-12-29T05:38:45;95473.75;;;7.14;57.22
29197;BME280;62796;42.654;23.316;2022-12-29T05:41:10;95480.81;;;7.15;57.24
29197;BME280;62796;42.654;23.316;2022-12-29T05:43:36;95487.19;;;7.12;57.59
29197;BME280;62796;42.654;23.316;2022-12-29T05:46:01;95479.03;;;7.09;57.61
29197;BME280;62796;42.654;23.316;2022-12-29T05:48:27;95485.13;;;7.16;57.92
29197;BME280;62796;42.654;23.316;2022-12-29T05:50:53;95484.75;;;7.14;58.02
29197;BME280;62796;42.654;23.316;2022-12-29T05:53:18;95486.88;;;7.10;57.92
29197;BME280;62796;42.654;23.316;2022-12-29T05:55:46;95488.94;;;7.06;58.39
29197;BME280;62796;42.654;23.316;2022-12-29T05:58:12;95497.22;;;7.06;58.52
29197;BME280;62796;42.654;23.316;2022-12-29T06:00:38;95493.59;;;7.09;58.45
29197;BME280;62796;42.654;23.316;2022-12-29T06:03:04;95495.78;;;7.14;58.58
29197;BME280;62796;42.654;23.316;2022-12-29T06:05:29;95495.00;;;7.14;58.68
29197;BME280;62796;42.654;23.316;2022-12-29T06:07:54;95501.31;;;7.27;58.25
29197;BME280;62796;42.654;23.316;2022-12-29T06:10:20;95502.97;;;7.24;58.31
29197;BME280;62796;42.654;23.316;2022-12-29T06:12:46;95498.56;;;7.27;58.17
29197;BME280;62796;42.654;23.316;2022-12-29T06:15:12;95504.06;;;7.40;58.00
29197;BME280;62796;42.654;23.316;2022-12-29T06:17:38;95498.56;;;7.40;58.19
29197;BME280;62796;42.654;23.316;2022-12-29T06:20:03;95501.06;;;7.47;58.10
29197;BME280;62796;42.654;23.316;2022-12-29T06:22:29;95495.03;;;7.52;57.69
29197;BME280;62796;42.654;23.316;2022-12-29T06:24:54;95497.22;;;7.57;57.71
29197;BME280;62796;42.654;23.316;2022-12-29T06:27:20;95498.56;;;7.52;57.80
29197;BME280;62796;42.654;23.316;2022-12-29T06:29:45;95496.91;;;7.55;57.59
29197;BME280;62796;42.654;23.316;2022-12-29T06:32:11;95500.63;;;7.61;57.57
29197;BME280;62796;42.654;23.316;2022-12-29T06:34:36;95485.63;;;7.62;57.52
29197;BME280;62796;42.654;23.316;2022-12-29T06:37:02;95507.25;;;7.76;57.66
29197;BME280;62796;42.654;23.316;2022-12-29T06:39:27;95504.56;;;7.85;57.18
29197;BME280;62796;42.654;23.316;2022-12-29T06:41:53;95499.69;;;7.89;56.73
29197;BME280;62796;42.654;23.316;2022-12-29T06:44:20;95509.84;;;7.92;56.74
29197;BME280;62796;42.654;23.316;2022-12-29T06:46:46;95509.31;;;7.85;56.86
29197;BME280;62796;42.654;23.316;2022-12-29T06:49:11;95513.38;;;7.80;57.06
29197;BME280;62796;42.654;23.316;2022-12-29T06:51:37;95508.53;;;7.84;57.21
29197;BME280;62796;42.654;23.316;2022-12-29T06:54:02;95507.44;;;7.94;56.97
29197;BME280;62796;42.654;23.316;2022-12-29T06:56:28;95493.66;;;7.82;57.42
29197;BME280;62796;42.654;23.316;2022-12-29T06:58:53;95522.31;;;7.97;57.38
29197;BME280;62796;42.654;23.316;2022-12-29T07:01:18;95525.28;;;8.02;56.98
29197;BME280;62796;42.654;23.316;2022-12-29T07:03:44;95508.94;;;7.95;57.15
29197;BME280;62796;42.654;23.316;2022-12-29T07:06:09;95519.28;;;8.16;56.79
29197;BME280;62796;42.654;23.316;2022-12-29T07:08:35;95521.13;;;8.32;55.73
29197;BME280;62796;42.654;23.316;2022-12-29T07:11:00;95526.41;;;8.39;55.93
29197;BME280;62796;42.654;23.316;2022-12-29T07:13:25;95523.09;;;8.44;55.76
29197;BME280;62796;42.654;23.316;2022-12-29T07:15:51;95520.81;;;8.52;55.87
29197;BME280;62796;42.654;23.316;2022-12-29T07:18:16;95512.41;;;8.55;56.08
29197;BME280;62796;42.654;23.316;2022-12-29T07:20:42;95511.91;;;8.69;55.46
29197;BME280;62796;42.654;23.316;2022-12-29T07:23:07;95512.91;;;9.06;53.92
29197;BME280;62796;42.654;23.316;2022-12-29T07:25:32;95514.16;;;9.36;53.12
29197;BME280;62796;42.654;23.316;2022-12-29T07:28:00;95509.78;;;9.57;53.58
29197;BME280;62796;42.654;23.316;2022-12-29T07:30:25;95521.38;;;9.73;52.56
29197;BME280;62796;42.654;23.316;2022-12-29T07:32:51;95521.34;;;10.13;51.91
29197;BME280;62796;42.654;23.316;2022-12-29T07:35:16;95506.31;;;10.50;50.45
29197;BME280;62796;42.654;23.316;2022-12-29T07:37:41;95516.75;;;10.83;50.01
29197;BME280;62796;42.654;23.316;2022-12-29T07:40:09;95501.25;;;11.27;48.77
29197;BME280;62796;42.654;23.316;2022-12-29T07:42:34;95504.84;;;11.70;47.48
29197;BME280;62796;42.654;23.316;2022-12-29T07:45:00;95507.72;;;12.08;46.61
29197;BME280;62796;42.654;23.316;2022-12-29T07:47:26;95498.00;;;12.12;45.78
29197;BME280;62796;42.654;23.316;2022-12-29T07:49:51;95511.63;;;12.25;45.41
29197;BME280;62796;42.654;23.316;2022-12-29T07:52:16;95518.81;;;12.55;44.94
29197;BME280;62796;42.654;23.316;2022-12-29T07:54:42;95518.81;;;12.94;43.92
29197;BME280;62796;42.654;23.316;2022-12-29T07:57:07;95515.63;;;13.39;42.30
29197;BME280;62796;42.654;23.316;2022-12-29T07:59:33;95523.38;;;13.35;42.44
29197;BME280;62796;42.654;23.316;2022-12-29T08:01:58;95518.38;;;13.68;41.68
29197;BME280;62796;42.654;23.316;2022-12-29T08:04:24;95520.69;;;14.05;40.90
29197;BME280;62796;42.654;23.316;2022-12-29T08:06:49;95521.69;;;14.22;40.18
29197;BME280;62796;42.654;23.316;2022-12-29T08:09:14;95527.75;;;13.71;41.11
29197;BME280;62796;42.654;23.316;2022-12-29T08:11:40;95536.47;;;13.93;40.59
29197;BME280;62796;42.654;23.316;2022-12-29T08:14:06;95524.19;;;14.20;40.21
29197;BME280;62796;42.654;23.316;2022-12-29T08:16:31;95530.66;;;14.46;39.12
29197;BME280;62796;42.654;23.316;2022-12-29T08:18:57;95517.13;;;14.79;38.95
29197;BME280;62796;42.654;23.316;2022-12-29T08:21:24;95526.59;;;14.87;37.67
29197;BME280;62796;42.654;23.316;2022-12-29T08:23:49;95517.59;;;14.72;38.39
29197;BME280;62796;42.654;23.316;2022-12-29T08:26:15;95505.59;;;14.66;38.39
29197;BME280;62796;42.654;23.316;2022-12-29T08:28:40;95507.66;;;14.71;38.04
29197;BME280;62796;42.654;23.316;2022-12-29T08:31:06;95514.16;;;15.09;37.19
29197;BME280;62796;42.654;23.316;2022-12-29T08:33:31;95514.13;;;15.29;36.16
29197;BME280;62796;42.654;23.316;2022-12-29T08:36:05;95514.72;;;15.64;35.97
29197;BME280;62796;42.654;23.316;2022-12-29T08:38:31;95516.72;;;15.95;35.33
29197;BME280;62796;42.654;23.316;2022-12-29T08:40:58;95520.88;;;16.05;34.12
29197;BME280;62796;42.654;23.316;2022-12-29T08:43:23;95521.22;;;15.81;35.37
29197;BME280;62796;42.654;23.316;2022-12-29T08:45:49;95516.63;;;15.47;35.61
29197;BME280;62796;42.654;23.316;2022-12-29T08:48:14;95509.97;;;15.19;36.43
29197;BME280;62796;42.654;23.316;2022-12-29T08:50:43;95509.94;;;15.44;35.75
29197;BME280;62796;42.654;23.316;2022-12-29T08:53:09;95511.47;;;15.71;35.96
29197;BME280;62796;42.654;23.316;2022-12-29T08:55:35;95506.16;;;16.10;34.63
29197;BME280;62796;42.654;23.316;2022-12-29T08:58:00;95506.75;;;16.25;34.25
29197;BME280;62796;42.654;23.316;2022-12-29T09:00:25;95508.34;;;16.37;34.16
29197;BME280;62796;42.654;23.316;2022-12-29T09:02:51;95505.72;;;16.59;34.03
29197;BME280;62796;42.654;23.316;2022-12-29T09:05:16;95494.34;;;16.85;33.44
29197;BME280;62796;42.654;23.316;2022-12-29T09:07:42;95499.78;;;17.11;32.82
29197;BME280;62796;42.654;23.316;2022-12-29T09:10:07;95492.66;;;17.10;32.28
29197;BME280;62796;42.654;23.316;2022-12-29T09:12:33;95491.91;;;15.71;34.64
29197;BME280;62796;42.654;23.316;2022-12-29T09:14:58;95493.81;;;15.54;35.42
29197;BME280;62796;42.654;23.316;2022-12-29T09:17:24;95500.75;;;15.64;35.44
29197;BME280;62796;42.654;23.316;2022-12-29T09:20:08;95487.47;;;16.27;34.64
29197;BME280;62796;42.654;23.316;2022-12-29T09:22:34;95489.00;;;16.76;33.67
29197;BME280;62796;42.654;23.316;2022-12-29T09:25:00;95495.22;;;17.13;32.85
29197;BME280;62796;42.654;23.316;2022-12-29T09:27:25;95486.59;;;17.45;32.38
29197;BME280;62796;42.654;23.316;2022-12-29T09:29:51;95481.06;;;17.56;31.84
29197;BME280;62796;42.654;23.316;2022-12-29T09:32:16;95493.78;;;17.68;31.81
29197;BME280;62796;42.654;23.316;2022-12-29T09:34:41;95488.69;;;17.94;31.54
29197;BME280;62796;42.654;23.316;2022-12-29T09:37:07;95485.81;;;18.22;31.12
29197;BME280;62796;42.654;23.316;2022-12-29T09:39:32;95472.78;;;18.36;30.30
29197;BME280;62796;42.654;23.316;2022-12-29T09:42:00;95476.72;;;17.55;31.38
29197;BME280;62796;42.654;23.316;2022-12-29T09:47:03;95471.28;;;17.12;32.72
29197;BME280;62796;42.654;23.316;2022-12-29T09:52:19;95457.53;;;17.03;32.79
29197;BME280;62796;42.654;23.316;2022-12-29T09:54:57;95469.44;;;16.34;33.86
29197;BME280;62796;42.654;23.316;2022-12-29T09:57:35;95461.56;;;16.27;34.74
29197;BME280;62796;42.654;23.316;2022-12-29T10:00:11;95462.34;;;15.90;35.25
29197;BME280;62796;42.654;23.316;2022-12-29T10:02:43;95459.34;;;16.42;34.60
29197;BME280;62796;42.654;23.316;2022-12-29T10:05:26;95455.03;;;16.52;33.91
29197;BME280;62796;42.654;23.316;2022-12-29T10:10:59;95448.56;;;16.83;33.88
29197;BME280;62796;42.654;23.316;2022-12-29T10:19:13;95436.38;;;16.86;33.66
29197;BME280;62796;42.654;23.316;2022-12-29T10:22:03;95440.53;;;17.46;32.76
29197;BME280;62796;42.654;23.316;2022-12-29T10:24:34;95437.19;;;17.97;31.91
29197;BME280;62796;42.654;23.316;2022-12-29T10:27:03;95434.28;;;18.36;30.88
29197;BME280;62796;42.654;23.316;2022-12-29T10:29:38;95433.88;;;18.84;30.03
29197;BME280;62796;42.654;23.316;2022-12-29T10:32:06;95433.09;;;19.24;29.16
29197;BME280;62796;42.654;23.316;2022-12-29T10:34:42;95427.56;;;19.49;28.79
29197;BME280;62796;42.654;23.316;2022-12-29T10:39:49;95425.91;;;19.94;28.28
29197;BME280;62796;42.654;23.316;2022-12-29T10:42:31;95415.44;;;20.19;27.88
29197;BME280;62796;42.654;23.316;2022-12-29T10:44:58;95418.19;;;20.49;27.34
29197;BME280;62796;42.654;23.316;2022-12-29T10:47:28;95413.00;;;20.53;27.02
29197;BME280;62796;42.654;23.316;2022-12-29T10:49:54;95413.00;;;20.04;28.15
29197;BME280;62796;42.654;23.316;2022-12-29T10:52:22;95405.06;;;20.32;27.54
29197;BME280;62796;42.654;23.316;2022-12-29T10:54:58;95405.25;;;20.59;27.38
29197;BME280;62796;42.654;23.316;2022-12-29T10:57:34;95397.34;;;20.57;27.20
29197;BME280;62796;42.654;23.316;2022-12-29T11:00:05;95401.00;;;20.71;27.17
29197;BME280;62796;42.654;23.316;2022-12-29T11:08:25;95378.63;;;21.16;25.71
29197;BME280;62796;42.654;23.316;2022-12-29T11:11:04;95383.19;;;21.00;26.07
29197;BME280;62796;42.654;23.316;2022-12-29T11:13:35;95380.91;;;20.80;26.77
29197;BME280;62796;42.654;23.316;2022-12-29T11:16:11;95369.97;;;20.95;26.72
29197;BME280;62796;42.654;23.316;2022-12-29T11:18:38;95364.78;;;21.18;26.20
29197;BME280;62796;42.654;23.316;2022-12-29T11:21:30;95380.00;;;21.28;26.43
29197;BME280;62796;42.654;23.316;2022-12-29T11:24:24;95371.00;;;21.29;25.62
29197;BME280;62796;42.654;23.316;2022-12-29T11:26:54;95370.72;;;20.39;27.00
29197;BME280;62796;42.654;23.316;2022-12-29T11:29:27;95375.16;;;20.05;27.73
29197;BME280;62796;42.654;23.316;2022-12-29T11:31:57;95368.16;;;19.33;29.05
29197;BME280;62796;42.654;23.316;2022-12-29T11:34:32;95364.75;;;19.76;28.48
29197;BME280;62796;42.654;23.316;2022-12-29T11:37:06;95371.31;;;20.32;27.62
29197;BME280;62796;42.654;23.316;2022-12-29T11:40:02;95359.63;;;20.84;27.04
29197;BME280;62796;42.654;23.316;2022-12-29T11:45:04;95354.59;;;21.60;25.77
29197;BME280;62796;42.654;23.316;2022-12-29T11:47:32;95360.66;;;21.95;25.15
29197;BME280;62796;42.654;23.316;2022-12-29T11:50:04;95357.94;;;22.29;24.79
29197;BME280;62796;42.654;23.316;2022-12-29T11:52:33;95347.50;;;22.50;24.66
29197;BME280;62796;42.654;23.316;2022-12-29T11:55:01;95339.56;;;22.62;24.08
29197;BME280;62796;42.654;23.316;2022-12-29T11:57:28;95353.00;;;22.82;23.83
29197;BME280;62796;42.654;23.316;2022-12-29T11:59:58;95347.97;;;23.01;23.51
29197;BME280;62796;42.654;23.316;2022-12-29T12:02:42;95357.66;;;22.93;23.36
29197;BME280;62796;42.654;23.316;2022-12-29T12:05:33;95352.50;;;22.71;23.90
29197;BME280;62796;42.654;23.316;2022-12-29T12:11:22;95347.94;;;22.68;23.78
29197;BME280;62796;42.654;23.316;2022-12-29T12:16:47;95331.22;;;22.56;23.87
29197;BME280;62796;42.654;23.316;2022-12-29T12:21:52;95333.63;;;22.66;24.09
29197;BME280;62796;42.654;23.316;2022-12-29T12:27:18;95323.19;;;22.60;24.18
29197;BME280;62796;42.654;23.316;2022-12-29T12:35:13;95318.06;;;22.59;24.15
29197;BME280;62796;42.654;23.316;2022-12-29T12:43:31;95320.63;;;23.17;23.45
29197;BME280;62796;42.654;23.316;2022-12-29T12:57:31;95316.69;;;24.39;21.98
29197;BME280;62796;42.654;23.316;2022-12-29T13:03:04;95313.66;;;24.80;21.45
29197;BME280;62796;42.654;23.316;2022-12-29T13:06:15;95315.78;;;24.95;21.14
29197;BME280;62796;42.654;23.316;2022-12-29T13:23:13;95320.13;;;23.05;23.97
29197;BME280;62796;42.654;23.316;2022-12-29T13:25:51;95321.41;;;23.38;23.28
29197;BME280;62796;42.654;23.316;2022-12-29T13:28:57;95326.00;;;23.69;22.66
29197;BME280;62796;42.654;23.316;2022-12-29T13:31:33;95324.38;;;24.02;22.46
29197;BME280;62796;42.654;23.316;2022-12-29T13:36:52;95324.31;;;24.59;21.64
29197;BME280;62796;42.654;23.316;2022-12-29T13:39:38;95317.19;;;24.65;21.34
29197;BME280;62796;42.654;23.316;2022-12-29T13:42:04;95316.41;;;24.65;21.46
29197;BME280;62796;42.654;23.316;2022-12-29T13:44:36;95325.56;;;24.78;21.26
29197;BME280;62796;42.654;23.316;2022-12-29T13:47:26;95325.81;;;24.52;21.20
29197;BME280;62796;42.654;23.316;2022-12-29T13:49:53;95314.69;;;23.69;22.34
29197;BME280;62796;42.654;23.316;2022-12-29T13:52:38;95318.44;;;22.89;23.41
29197;BME280;62796;42.654;23.316;2022-12-29T13:55:45;95322.38;;;22.13;24.37
29197;BME280;62796;42.654;23.316;2022-12-29T14:01:08;95317.75;;;20.94;26.18
29197;BME280;62796;42.654;23.316;2022-12-29T14:03:45;95317.00;;;20.37;26.97
29197;BME280;62796;42.654;23.316;2022-12-29T14:06:22;95319.34;;;19.91;28.08
29197;BME280;62796;42.654;23.316;2022-12-29T14:08:57;95330.78;;;19.50;28.78
29197;BME280;62796;42.654;23.316;2022-12-29T14:11:32;95322.94;;;19.07;29.33
29197;BME280;62796;42.654;23.316;2022-12-29T14:14:00;95326.53;;;18.72;29.97
29197;BME280;62796;42.654;23.316;2022-12-29T14:16:35;95324.34;;;18.49;30.58
29197;BME280;62796;42.654;23.316;2022-12-29T14:19:31;95329.84;;;18.13;31.16
29197;BME280;62796;42.654;23.316;2022-12-29T14:22:03;95332.75;;;17.80;31.59
29197;BME280;62796;42.654;23.316;2022-12-29T14:26:57;95335.91;;;17.38;32.94
29197;BME280;62796;42.654;23.316;2022-12-29T14:31:48;95356.78;;;16.98;33.99
29197;BME280;62796;42.654;23.316;2022-12-29T14:37:01;95359.94;;;16.46;35.29
29197;BME280;62796;42.654;23.316;2022-12-29T14:42:12;95356.94;;;15.85;36.68
29197;BME280;62796;42.654;23.316;2022-12-29T14:47:33;95350.16;;;15.24;38.71
29197;BME280;62796;42.654;23.316;2022-12-29T14:50:11;95355.59;;;15.02;39.13
29197;BME280;62796;42.654;23.316;2022-12-29T14:57:44;95369.59;;;14.56;40.00
29197;BME280;62796;42.654;23.316;2022-12-29T15:00:23;95364.63;;;14.39;40.50
29197;BME280;62796;42.654;23.316;2022-12-29T15:03:07;95367.19;;;14.23;41.11
29197;BME280;62796;42.654;23.316;2022-12-29T15:05:43;95361.78;;;14.14;41.17
29197;BME280;62796;42.654;23.316;2022-12-29T15:08:10;95352.72;;;13.99;41.54
29197;BME280;62796;42.654;23.316;2022-12-29T15:10:42;95359.72;;;13.89;41.76
29197;BME280;62796;42.654;23.316;2022-12-29T15:13:22;95360.69;;;13.85;42.20
29197;BME280;62796;42.654;23.316;2022-12-29T15:15:48;95354.47;;;13.76;42.16
29197;BME280;62796;42.654;23.316;2022-12-29T15:18:31;95361.50;;;13.71;42.50
29197;BME280;62796;42.654;23.316;2022-12-29T15:21:00;95352.16;;;13.54;42.61
29197;BME280;62796;42.654;23.316;2022-12-29T15:23:26;95361.31;;;13.40;43.16